KACK/ACK METAR and TAF weather

Enter ICAO airport designator
Station Type Date Time Source
KACK METAR 2020/08/11 18:16 UTC NOAA

KACK 111816Z 22011KT 10SM OVC005 26/23 A3001 RMK AO2 T02610228


Station Type Date Time Source
KACK Decoded METAR 2020/08/11 18:16 UTC NOAA

NANTUCKET MEMORIAL AIRPORT, MA, United States (KACK) 41-15N 70-04W 16M
Aug 11, 2020 - 02:16 PM EDT / 2020.08.11 1816 UTC
Wind: from the SW (220 degrees) at 13 MPH (11 KT):0
Visibility: 10 mile(s):0
Sky conditions: overcast
Temperature: 79.0 F (26.1 C)
Dew Point: 73.0 F (22.8 C)
Relative Humidity: 82%
Pressure (altimeter): 30.01 in. Hg (1016 hPa)
ob: KACK 111816Z 22011KT 10SM OVC005 26/23 A3001 RMK AO2 T02610228
cycle: 18

Station Type Date Time Source
KACK TAF 2020/08/11 18:42 UTC NOAA

TAF KACK 111740Z 1118/1218 22012KT P6SM FEW003
FM120000 21012KT 5SM BR BKN003
FM120300 20008KT 3SM BR BKN003
FM121300 21010KT 6SM BR SCT003
FM121500 21010KT P6SM FEW003 BKN050

Example: see airport list